• Join FlightAware (Why Join?)
  • Login
  • US Flag 
01:01PM EDT


 

Airport Tracker/Info


-or-


 

Live Flight TrackerFlight Track Log ✈ EJA982 ✈ 15-Jun-2013 ✈ KTEB - KSAF

Flight Track Log - Related Links

Times and Time Zones

All times are in EDT time to prevent confusion due to time zone crossing. See the EJA982 flight status page for this flight to view local times or setup timezone preferences in your user account.

Time Position Orientation Groundspeed Altitude Reporting Facility
EDT Latitude Longitude Course Direction KTS MPH feet Rate Location/Type
09:45AM 40.8333 -74.1000 262° West 181 208 1,100  Level New York TRACON
09:47AM 40.8167 -74.2533 262° West 199 229 3,900 1,500 Climbing New York Center
09:48AM 40.8225 -74.3358 275° West 227 261 6,000 2,700 Climbing New York Center
09:49AM 40.8214 -74.4400 269° West 260 299 9,400 2,520 Climbing New York Center
09:50AM 40.8183 -74.5358 268° West 283 326 11,000 1,680 Climbing New York Center
09:51AM 40.7975 -74.6636 258° West 325 374 12,800 1,860 Climbing New York Center
09:52AM 40.7708 -74.7769 253° West 359 413 14,800 1,980 Climbing New York Center
09:53AM 40.7367 -74.9175 252° West 364 419 16,900 1,920 Climbing New York Center
09:54AM 40.7097 -75.0336 253° West 370 426 18,700 1,620 Climbing New York Center
09:55AM 40.6778 -75.1656 252° West 380 437 20,200 1,380 Climbing New York Center
09:56AM 40.6456 -75.3031 253° West 385 443 21,600 1,380 Climbing New York Center
09:57AM 40.6108 -75.4431 252° West 397 457 23,000 1,380 Climbing New York Center
09:58AM 40.5739 -75.5853 251° West 402 463 24,500 1,380 Climbing New York Center
09:59AM 40.5386 -75.7331 253° West 414 476 25,900 1,260 Climbing New York Center
10:00AM 40.5011 -75.8806 252° West 420 483 27,100 1,260 Climbing New York Center
10:01AM 40.4539 -76.0489 250° West 438 504 28,400 1,140 Climbing New York Center
10:02AM 40.4158 -76.2014 252° West 443 510 29,400 1,080 Climbing New York Center
10:03AM 40.3769 -76.3644 253° West 455 524 30,600 1,380 Climbing New York Center
10:04AM 40.3339 -76.5217 250° West 460 529 32,200 1,560 Climbing New York Center
10:05AM 40.3219 -76.6814 264° West 455 524 33,700 1,680 Climbing New York Center
10:06AM 40.3161 -76.8389 267° West 442 509 35,600 1,920 Climbing New York Center
10:07AM 40.3081 -76.9906 266° West 437 503 37,600 1,680 Climbing New York Center
10:08AM 40.3022 -77.1397 267° West 431 496 39,000 960 Climbing New York Center
10:09AM 40.2978 -77.2592 267° West 419 482 39,500 600 Climbing New York Center
10:11AM 40.2872 -77.6189 268° West 426 490 40,900 660 Climbing Cleveland Center
10:12AM 40.2786 -77.7825 266° West 436 502 41,600 720 Climbing Cleveland Center
10:13AM 40.2681 -77.9436 265° West 447 514 42,400 660 Climbing Cleveland Center
10:14AM 40.2611 -78.1044 267° West 447 514 43,000 300 Climbing Cleveland Center
10:15AM 40.2522 -78.2681 266° West 447 514 43,000  Level Cleveland Center
10:16AM 40.2428 -78.4342 266° West 452 520 43,000  Level Cleveland Center
10:17AM 40.2356 -78.6058 267° West 465 535 43,000  Level Cleveland Center
10:18AM 40.2258 -78.7803 266° West 476 548 43,000  Level Cleveland Center
10:19AM 40.2161 -78.9517 266° West 481 554 43,000  Level Cleveland Center
10:20AM 40.2058 -79.1286 266° West 481 554 43,000  Level Cleveland Center
10:21AM 40.1956 -79.3031 266° West 481 554 43,000  Level Cleveland Center
10:22AM 40.1889 -79.4769 267° West 481 554 43,000  Level Cleveland Center
10:23AM 40.1800 -79.6267 266° West 481 554 43,000  Level Cleveland Center
10:24AM 40.1686 -79.7981 265° West 476 548 43,000  Level Cleveland Center
10:25AM 40.1572 -79.9664 265° West 476 548 43,000  Level Cleveland Center
10:26AM 40.1414 -80.1622 264° West 488 562 43,000  Level Cleveland Center
10:28AM 40.1242 -80.4525 266° West 479 551 43,000  Level Indianapolis Center
10:29AM 40.1111 -80.6253 264° West 474 545 43,000  Level Indianapolis Center
10:30AM 40.0994 -80.7967 265° West 471 542 43,000  Level Indianapolis Center
10:31AM 40.0844 -80.9986 265° West 472 543 43,000  Level Indianapolis Center
10:32AM 40.0711 -81.1711 264° West 473 544 43,000  Level Indianapolis Center
10:33AM 40.0583 -81.3442 265° West 472 543 43,000  Level Indianapolis Center
10:34AM 40.0447 -81.5164 264° West 472 543 43,000  Level Indianapolis Center
10:35AM 40.0314 -81.6897 264° West 474 545 43,000  Level Indianapolis Center
10:36AM 40.0186 -81.8544 264° West 476 548 43,000  Level Indianapolis Center
10:37AM 40.0036 -82.0267 264° West 475 547 43,000  Level Indianapolis Center
10:38AM 39.9878 -82.2281 264° West 475 547 43,000  Level Indianapolis Center
10:39AM 39.9728 -82.4006 264° West 474 545 43,000  Level Indianapolis Center
10:40AM 39.9583 -82.5725 264° West 474 545 43,000  Level Indianapolis Center
10:41AM 39.9425 -82.7456 263° West 477 549 43,000  Level Indianapolis Center
10:42AM 39.9264 -82.9181 263° West 476 548 43,000  Level Indianapolis Center
10:43AM 39.9111 -83.0906 263° West 475 547 43,000  Level Indianapolis Center
10:44AM 39.8953 -83.2633 263° West 478 550 43,000  Level Indianapolis Center
10:45AM 39.8767 -83.4581 263° West 479 551 43,000  Level Indianapolis Center
10:46AM 39.8603 -83.6289 263° West 478 550 43,000  Level Indianapolis Center
10:47AM 39.8433 -83.7981 263° West 476 548 43,000  Level Indianapolis Center
10:48AM 39.8256 -83.9689 262° West 474 545 43,000  Level Indianapolis Center
10:49AM 39.8092 -84.1392 263° West 473 544 43,000  Level Indianapolis Center
10:50AM 39.7908 -84.3108 262° West 474 545 43,000  Level Indianapolis Center
10:51AM 39.7733 -84.4819 262° West 474 545 43,000  Level Indianapolis Center
10:52AM 39.7558 -84.6531 262° West 473 544 43,000  Level Indianapolis Center
10:53AM 39.7333 -84.8531 262° West 477 549 43,000  Level Indianapolis Center
10:54AM 39.7169 -85.0036 262° West 480 552 43,000  Level Indianapolis Center
10:55AM 39.7000 -85.1750 263° West 480 552 43,000  Level Indianapolis Center
10:56AM 39.6761 -85.3786 261° West 476 548 43,000  Level Indianapolis Center
10:57AM 39.6569 -85.5464 262° West 471 542 43,000  Level Indianapolis Center
10:58AM 39.6386 -85.7156 262° West 473 544 43,000  Level Indianapolis Center
11:00AM 39.6181 -85.8842 261° West 472 543 43,000  Level Indianapolis Center
11:01AM 39.5978 -86.0536 261° West 473 544 43,000  Level Indianapolis Center
11:02AM 39.5756 -86.2264 261° West 477 549 43,000  Level Indianapolis Center
11:03AM 39.5558 -86.4011 262° West 480 552 43,000  Level Indianapolis Center
11:04AM 39.5350 -86.5733 261° West 479 551 43,000  Level Indianapolis Center
11:05AM 39.5139 -86.7442 261° West 481 554 43,000  Level Indianapolis Center
11:06AM 39.4933 -86.9131 261° West 476 548 43,000  Level Indianapolis Center
11:07AM 39.4686 -87.1128 261° West 468 539 43,000  Level Indianapolis Center
11:08AM 39.4472 -87.2778 261° West 467 537 43,000  Level Indianapolis Center
11:09AM 39.4247 -87.4408 260° West 463 533 43,000  Level Indianapolis Center
11:10AM 39.4033 -87.6061 261° West 465 535 43,000  Level Indianapolis Center
11:11AM 39.3811 -87.7717 260° West 467 537 43,000  Level Indianapolis Center
11:12AM 39.3583 -87.9414 260° West 469 540 43,000  Level Indianapolis Center
11:13AM 39.3350 -88.1089 260° West 472 543 43,000  Level Indianapolis Center
11:13AM 39.3200 -88.2103 259° West 470 541 43,000  Level Kansas City Center
11:14AM 39.3119 -88.2744 261° West 470 541 43,000  Level Indianapolis Center
11:14AM 39.2975 -88.3758 260° West 469 540 43,000  Level Kansas City Center
11:15AM 39.2739 -88.5428 260° West 470 541 43,000  Level Kansas City Center
11:17AM 39.2494 -88.7108 259° West 464 534 43,000  Level Kansas City Center
11:18AM 39.2256 -88.8731 259° West 463 533 43,000  Level Kansas City Center
11:19AM 39.2053 -89.0347 261° West 461 531 43,000  Level Kansas City Center
11:20AM 39.1817 -89.1933 259° West 456 525 43,000  Level Kansas City Center
11:21AM 39.1542 -89.3803 259° West 452 520 43,000  Level Kansas City Center
11:22AM 39.1292 -89.5514 259° West 453 521 43,000  Level Kansas City Center
11:23AM 39.1058 -89.7086 259° West 450 518 43,000  Level Kansas City Center
11:24AM 39.0817 -89.8647 259° West 447 514 43,000  Level Kansas City Center
11:25AM 39.0589 -90.0128 259° West 451 519 43,000  Level Kansas City Center
11:26AM 39.0339 -90.1700 258° West 452 520 43,000  Level Kansas City Center
11:27AM 39.0044 -90.3617 259° West 459 528 43,000  Level Kansas City Center
11:28AM 38.9794 -90.5222 259° West 464 534 43,000  Level Kansas City Center
11:29AM 38.9531 -90.6828 258° West 465 535 43,000  Level Kansas City Center
11:30AM 38.9281 -90.8381 258° West 455 524 43,000  Level Kansas City Center
11:31AM 38.8986 -91.0281 259° West 455 524 43,000  Level Kansas City Center
11:32AM 38.8722 -91.1858 258° West 456 525 43,000  Level Kansas City Center
11:33AM 38.8467 -91.3425 258° West 452 520 43,000  Level Kansas City Center
11:34AM 38.8208 -91.5006 258° West 454 522 43,000  Level Kansas City Center
11:35AM 38.7933 -91.6575 257° West 453 521 43,000  Level Kansas City Center
11:36AM 38.7636 -91.8336 258° West 451 519 43,000  Level Kansas City Center
11:37AM 38.7356 -91.9892 257° West 449 517 43,000  Level Kansas City Center
11:38AM 38.7086 -92.1469 258° West 452 520 43,000  Level Kansas City Center
11:39AM 38.6808 -92.3042 257° West 454 522 43,000  Level Kansas City Center
11:40AM 38.6461 -92.4917 257° West 453 521 43,000  Level Kansas City Center
11:41AM 38.6178 -92.6503 257° West 454 522 43,000  Level Kansas City Center
11:42AM 38.5889 -92.8100 257° West 460 529 43,000  Level Kansas City Center
11:43AM 38.5603 -92.9694 257° West 461 531 43,000  Level Kansas City Center
11:44AM 38.5311 -93.1289 257° West 462 532 43,000  Level Kansas City Center
11:45AM 38.5031 -93.2869 257° West 458 527 43,000  Level Kansas City Center
11:46AM 38.4664 -93.4800 256° West 464 534 43,000  Level Kansas City Center
11:48AM 38.4350 -93.6411 256° West 467 537 43,000  Level Kansas City Center
11:49AM 38.4044 -93.8044 257° West 471 542 43,000  Level Kansas City Center
11:50AM 38.3728 -93.9661 256° West 471 542 43,000  Level Kansas City Center
11:51AM 38.3383 -94.1472 256° West 469 540 43,000  Level Kansas City Center
11:52AM 38.3081 -94.3036 256° West 471 542 43,000  Level Kansas City Center
11:53AM 38.2778 -94.4600 256° West 473 544 43,000  Level Kansas City Center
11:54AM 38.2472 -94.6431 258° West 474 545 43,000  Level Kansas City Center
11:55AM 38.2222 -94.7983 258° West 471 542 43,000  Level Kansas City Center
11:56AM 38.1947 -94.9783 259° West 467 537 43,000  Level Kansas City Center
11:57AM 38.1686 -95.1367 258° West 471 542 43,000  Level Kansas City Center
11:58AM 38.1381 -95.3214 258° West 476 548 43,000  Level Kansas City Center
11:59AM 38.1103 -95.4783 257° West 474 545 43,000  Level Kansas City Center
12:00PM 38.0786 -95.6636 258° West 479 551 43,000  Level Kansas City Center
12:01PM 38.0508 -95.8225 258° West 482 555 43,000  Level Kansas City Center
12:02PM 38.0242 -95.9831 258° West 485 558 43,000  Level Kansas City Center
12:03PM 37.9967 -96.1528 258° West 485 558 43,000  Level Kansas City Center
12:04PM 37.9678 -96.3208 258° West 486 559 43,000  Level Kansas City Center
12:05PM 37.9350 -96.5194 258° West 482 555 43,000  Level Kansas City Center
12:06PM 37.9069 -96.6839 258° West 479 551 43,000  Level Kansas City Center
12:07PM 37.8786 -96.8497 258° West 481 554 43,000  Level Kansas City Center
12:08PM 37.8497 -97.0147 258° West 481 554 43,000  Level Kansas City Center
12:09PM 37.8203 -97.1775 257° West 477 549 43,000  Level Kansas City Center
12:10PM 37.7903 -97.3408 257° West 475 547 43,000  Level Kansas City Center
12:11PM 37.7583 -97.5122 257° West 474 545 43,000  Level Kansas City Center
12:12PM 37.7272 -97.6756 257° West 477 549 43,000  Level Kansas City Center
12:13PM 37.6900 -97.8714 257° West 479 551 43,000  Level Kansas City Center
12:14PM 37.6606 -98.0339 257° West 475 547 43,000  Level Kansas City Center
12:15PM 37.6278 -98.1944 256° West 475 547 43,000  Level Kansas City Center
12:16PM 37.5953 -98.3567 256° West 475 547 43,000  Level Kansas City Center
12:17PM 37.5633 -98.5167 256° West 473 544 43,000  Level Kansas City Center
12:18PM 37.5317 -98.6767 256° West 472 543 43,000  Level Kansas City Center
12:20PM 37.4986 -98.8356 255° West 470 541 43,000  Level Kansas City Center
12:21PM 37.4600 -99.0256 256° West 467 537 43,000  Level Kansas City Center
12:22PM 37.4275 -99.1842 256° West 468 539 43,000  Level Kansas City Center
12:23PM 37.3933 -99.3411 255° West 466 536 43,000  Level Kansas City Center
12:24PM 37.3600 -99.5078 256° West 464 534 43,000  Level Kansas City Center
12:25PM 37.3281 -99.6592 255° West 466 536 43,000  Level Kansas City Center
12:26PM 37.2906 -99.8375 255° West 470 541 43,000  Level Kansas City Center
12:27PM 37.2581 -99.9900 255° West 471 542 43,000  Level Kansas City Center
12:28PM 37.2189 -100.1678 255° West 471 542 43,000  Level Kansas City Center
12:29PM 37.1864 -100.3200 255° West 471 542 43,000  Level Kansas City Center
12:30PM 37.1472 -100.4983 255° West 472 543 43,000  Level Kansas City Center
12:31PM 37.1142 -100.6506 255° West 472 543 43,000  Level Kansas City Center
12:32PM 37.0808 -100.8028 255° West 472 543 43,000  Level Kansas City Center
12:33PM 37.0403 -100.9786 254° West 470 541 43,000  Level Kansas City Center
12:34PM 36.9964 -101.1256 250° West 470 541 43,000  Level Kansas City Center
12:35PM 36.9433 -101.2947 249° West 468 539 43,000  Level Kansas City Center
12:36PM 36.8986 -101.4383 249° West 465 535 43,000  Level Kansas City Center
12:37PM 36.8458 -101.6047 248° West 462 532 43,000  Level Kansas City Center
12:38PM 36.8158 -101.6994 248° West 461 531 43,000  Level Albuquerque Center
12:39PM 36.7706 -101.8411 248° West 460 529 43,000  Level Albuquerque Center
12:40PM 36.7183 -102.0053 248° West 458 527 43,000  Level Albuquerque Center
12:41PM 36.6725 -102.1469 248° West 458 527 43,000  Level Albuquerque Center
12:42PM 36.6217 -102.3017 248° West 462 532 43,000  Level Albuquerque Center
12:43PM 36.5739 -102.4486 248° West 462 532 43,000  Level Albuquerque Center
12:44PM 36.5164 -102.6250 248° West 461 531 43,000  Level Albuquerque Center
12:45PM 36.4675 -102.7728 248° West 465 535 43,000  Level Albuquerque Center
12:46PM 36.4172 -102.9286 248° West 463 533 43,000  Level Albuquerque Center
12:47PM 36.3672 -103.0769 247° West 462 532 43,000  Level Albuquerque Center
12:48PM 36.3175 -103.2264 248° West 465 535 43,000  Level Albuquerque Center
12:49PM 36.2678 -103.3769 248° West 468 539 43,000  Level Albuquerque Center
12:50PM 36.2167 -103.5269 247° West 470 541 43,000  Level Albuquerque Center
12:51PM 36.1661 -103.6775 247° West 471 542 43,000  Level Albuquerque Center
12:52PM 36.1061 -103.8506 247° West 468 539 43,000  Level Albuquerque Center
12:53PM 36.0558 -103.9986 247° West 467 537 43,000 -960 Level Albuquerque Center
12:54PM 36.0042 -104.1481 247° West 470 541 41,100 -2,160 Descending Albuquerque Center
12:55PM 35.9539 -104.2925 247° West 462 532 38,600 -2,460 Descending Albuquerque Center
12:56PM 35.9033 -104.4375 247° West 459 528 36,100 -2,160 Descending Albuquerque Center
12:57PM 35.8514 -104.5847 247° West 465 535 34,200 -2,400 Descending Albuquerque Center
12:58PM 35.7911 -104.7561 247° West 466 536 31,200 -2,700 Descending Albuquerque Center
12:59PM 35.7389 -104.9056 247° West 471 542 28,700 -2,460 Descending Albuquerque Center
01:01PM 35.6825 -105.0528 245° Southwest 472 543 26,200 -2,520 Descending Albuquerque Center
01:02PM 35.6197 -105.1906 241° Southwest 464 534 23,600 -2,460 Descending Albuquerque Center
01:03PM 35.5603 -105.3297 242° Southwest 460 529 21,200 -2,280 Descending Albuquerque Center
01:04PM 35.5003 -105.4622 241° Southwest 448 516 19,000 -2,100 Descending Albuquerque Center
01:05PM 35.4400 -105.5900 240° Southwest 437 503 16,900 -2,280 Descending Albuquerque Center
01:06PM 35.4219 -105.7406 262° West 409 471 14,300 -2,340 Descending Albuquerque Center
01:07PM 35.4517 -105.8617 287° West 383 441 12,100 -1,620 Descending Albuquerque Center
01:08PM 35.5117 -105.9383 314° West 331 381 11,000 -600 Descending Albuquerque Center
01:09PM 35.5678 -105.9856 326° Northwest 258 297 10,900  Descending Albuquerque Center
01:10PM 35.6228 -106.0197 333° Northwest 228 262 11,000  Climbing Albuquerque Center
01:11PM 35.6781 -106.0461 339° North 218 251 10,900  Descending Albuquerque Center
01:12PM 35.7306 -106.0575 350° North 220 253 11,000 -180 Climbing Albuquerque Center
01:13PM 35.7344 -105.9981 85° East 224 258 10,600 -1,260 Descending Albuquerque Center
01:14PM 35.6869 -106.0283 207° Southwest 210 242 8,400 -1,800 Descending Albuquerque Center
01:15PM 35.6444 -106.0683 217° Southwest 178 205 6,900 -1,500 Descending Albuquerque Center